Time;durP1;ratioP1;P1;durP2;ratioP2;P2;SDS_P1;SDS_P2;PMS_P1;PMS_P2;Temp;Humidity;BMP_temperature;BMP_pressure;BME280_temperature;BME280_humidity;BME280_pressure;Samples;Min_cycle;Max_cycle;Signal;HPM_P1;HPM_P2
2024/01/10 00:00:30;;;;;;;27.50;17.55;;;-3.40;99.90;;;;;;7376149;19;20015;-63
2024/01/10 00:02:56;;;;;;;23.30;16.73;;;-3.40;99.90;;;;;;7372047;19;20018;-63
2024/01/10 00:05:22;;;;;;;20.42;13.98;;;-3.40;99.90;;;;;;7374666;19;20025;-63
2024/01/10 00:07:49;;;;;;;19.83;15.43;;;-3.50;99.90;;;;;;7374154;19;20070;-63
2024/01/10 00:10:15;;;;;;;19.48;14.45;;;-3.40;99.90;;;;;;7374543;19;20681;-63
2024/01/10 00:12:44;;;;;;;23.45;15.90;;;-3.50;99.90;;;;;;7373363;19;20074;-63
2024/01/10 00:15:10;;;;;;;22.35;16.15;;;-3.50;99.90;;;;;;7371835;19;20018;-63
2024/01/10 00:17:36;;;;;;;18.35;14.15;;;-3.50;99.90;;;;;;7371242;19;20015;-63
2024/01/10 00:20:03;;;;;;;21.15;15.32;;;-3.50;99.90;;;;;;7374843;19;20810;-63
2024/01/10 00:22:30;;;;;;;20.23;14.93;;;-3.50;99.90;;;;;;7371914;19;20043;-64
2024/01/10 00:24:56;;;;;;;23.10;16.13;;;-3.50;99.90;;;;;;7374183;19;20074;-63
2024/01/10 00:27:22;;;;;;;22.63;15.02;;;-3.50;99.90;;;;;;7369262;19;20022;-63
2024/01/10 00:29:48;;;;;;;21.70;16.10;;;-3.50;99.90;;;;;;7375526;19;20778;-63
2024/01/10 00:32:14;;;;;;;21.30;15.18;;;-3.50;99.90;;;;;;7370613;19;20665;-63
2024/01/10 00:34:41;;;;;;;22.05;16.05;;;-3.50;99.90;;;;;;7372654;19;20581;-63
2024/01/10 00:37:07;;;;;;;20.50;14.02;;;-3.60;99.90;;;;;;7370880;19;20734;-63
2024/01/10 00:39:33;;;;;;;22.25;16.20;;;-3.50;99.90;;;;;;7371826;19;20022;-65
2024/01/10 00:41:59;;;;;;;21.45;16.52;;;-3.50;99.90;;;;;;7372184;19;20022;-63
2024/01/10 00:44:26;;;;;;;20.95;16.08;;;-3.60;99.90;;;;;;7373770;19;20037;-69
2024/01/10 00:46:52;;;;;;;21.33;14.93;;;-3.60;99.90;;;;;;7369177;19;20085;-69
2024/01/10 00:49:18;;;;;;;23.25;16.63;;;-3.60;99.90;;;;;;7371561;19;20026;-63
2024/01/10 00:51:44;;;;;;;17.95;15.02;;;-3.60;99.90;;;;;;7375167;19;20466;-69
2024/01/10 00:54:10;;;;;;;21.38;14.82;;;-3.60;99.90;;;;;;7372732;19;20041;-69
2024/01/10 00:56:36;;;;;;;26.88;16.52;;;-3.60;99.90;;;;;;7368979;19;20090;-69
2024/01/10 00:59:04;;;;;;;24.40;15.98;;;-3.50;99.90;;;;;;7372470;19;20018;-70
2024/01/10 01:01:50;;;;;;;21.10;15.88;;;-3.50;99.90;;;;;;7374358;19;20033;-70
2024/01/10 01:04:16;;;;;;;21.92;15.55;;;-3.60;99.90;;;;;;7369812;19;20020;-70
2024/01/10 01:06:42;;;;;;;23.00;16.02;;;-3.60;99.90;;;;;;7368392;19;20027;-70
2024/01/10 01:09:08;;;;;;;21.58;16.30;;;-3.60;99.90;;;;;;7366600;19;20026;-69
2024/01/10 01:11:35;;;;;;;22.70;15.85;;;-3.60;99.90;;;;;;7370104;19;20030;-69
2024/01/10 01:14:01;;;;;;;24.45;17.15;;;-3.60;99.90;;;;;;7370969;19;20018;-69
2024/01/10 01:16:28;;;;;;;27.23;16.42;;;-3.60;99.90;;;;;;7362253;19;20326;-69
2024/01/10 01:18:54;;;;;;;24.27;16.73;;;-3.60;99.90;;;;;;7366676;19;20014;-69
2024/01/10 01:21:21;;;;;;;24.15;16.73;;;-3.60;99.90;;;;;;7364539;19;20031;-69
2024/01/10 01:23:47;;;;;;;22.60;16.65;;;-3.70;99.90;;;;;;7370641;19;20570;-69
2024/01/10 01:26:14;;;;;;;23.77;16.35;;;-3.70;99.90;;;;;;7370243;19;20018;-70
2024/01/10 01:28:40;;;;;;;22.92;16.40;;;-3.70;99.90;;;;;;7369876;19;20015;-70
2024/01/10 01:31:06;;;;;;;19.58;15.55;;;-3.70;99.90;;;;;;7371043;19;20022;-70
2024/01/10 01:33:33;;;;;;;21.65;15.60;;;-3.70;99.90;;;;;;7367298;19;20042;-70
2024/01/10 01:35:59;;;;;;;22.20;16.00;;;-3.70;99.90;;;;;;7372407;19;20558;-70
2024/01/10 01:38:25;;;;;;;22.85;15.60;;;-3.70;99.90;;;;;;7365266;19;20430;-69
2024/01/10 01:40:52;;;;;;;20.88;14.95;;;-3.70;99.90;;;;;;7372451;19;20478;-70
2024/01/10 01:43:27;;;;;;;19.15;14.85;;;-3.80;99.90;;;;;;7378254;19;20094;-69
2024/01/10 01:45:55;;;;;;;22.50;16.33;;;-3.80;99.90;;;;;;7374046;19;20732;-70
2024/01/10 01:48:23;;;;;;;20.85;15.35;;;-3.80;99.90;;;;;;7369553;19;21890;-70
2024/01/10 01:50:52;;;;;;;18.15;14.05;;;-3.80;99.90;;;;;;7381149;19;20014;-70
2024/01/10 01:53:19;;;;;;;20.15;15.38;;;-3.80;99.90;;;;;;7374746;19;20030;-70
2024/01/10 01:55:45;;;;;;;19.92;14.18;;;-3.80;99.90;;;;;;7377637;19;20022;-69
2024/01/10 01:58:15;;;;;;;19.65;14.43;;;-3.90;99.90;;;;;;7365303;19;20018;-69
2024/01/10 02:00:43;;;;;;;21.10;15.10;;;-3.90;99.90;;;;;;7378985;19;20610;-70
2024/01/10 02:03:10;;;;;;;22.30;15.65;;;-3.90;99.90;;;;;;7378692;19;20014;-69
2024/01/10 02:05:37;;;;;;;20.55;15.52;;;-3.90;99.90;;;;;;7376495;19;20566;-70
2024/01/10 02:08:04;;;;;;;20.95;14.73;;;-3.90;99.90;;;;;;7373374;19;20047;-70
2024/01/10 02:10:30;;;;;;;22.85;16.05;;;-3.90;99.90;;;;;;7377404;19;20019;-70
2024/01/10 02:12:57;;;;;;;25.42;16.80;;;-3.90;99.90;;;;;;7377931;19;20105;-70
2024/01/10 02:15:24;;;;;;;18.63;15.07;;;-3.90;99.90;;;;;;7378349;19;20022;-70
2024/01/10 02:17:50;;;;;;;20.98;14.23;;;-3.90;99.90;;;;;;7369674;19;20017;-69
2024/01/10 02:20:17;;;;;;;24.73;16.00;;;-4.00;99.90;;;;;;7376580;19;20474;-69
2024/01/10 02:22:44;;;;;;;18.85;14.63;;;-4.00;99.90;;;;;;7372851;19;20508;-69
2024/01/10 02:25:11;;;;;;;23.65;15.30;;;-4.00;99.90;;;;;;7377034;19;20028;-69
2024/01/10 02:27:39;;;;;;;18.30;14.32;;;-4.00;99.90;;;;;;7374371;19;20645;-69
2024/01/10 02:30:06;;;;;;;18.52;13.82;;;-4.00;99.90;;;;;;7375151;19;20022;-69
2024/01/10 02:32:33;;;;;;;23.83;15.40;;;-4.00;99.90;;;;;;7373487;19;20022;-70
2024/01/10 02:34:59;;;;;;;20.67;13.82;;;-4.00;99.90;;;;;;7376200;19;20022;-70
2024/01/10 02:37:26;;;;;;;19.80;14.23;;;-4.00;99.90;;;;;;7373053;19;20097;-70
2024/01/10 02:39:52;;;;;;;19.80;14.02;;;-4.00;99.90;;;;;;7377986;19;20035;-69
2024/01/10 02:42:18;;;;;;;19.60;14.27;;;-4.00;99.90;;;;;;7375367;19;20030;-69
2024/01/10 02:44:44;;;;;;;18.30;13.25;;;-4.00;99.90;;;;;;7377753;19;20494;-70
2024/01/10 02:47:12;;;;;;;18.05;13.23;;;-4.00;99.90;;;;;;7375979;19;20021;-70
2024/01/10 02:49:38;;;;;;;19.98;14.43;;;-4.00;99.90;;;;;;7373886;19;20490;-69
2024/01/10 02:52:05;;;;;;;21.52;14.95;;;-4.00;99.90;;;;;;7377701;19;20033;-69
2024/01/10 02:54:31;;;;;;;18.67;14.10;;;-4.00;99.90;;;;;;7372841;19;20470;-70
2024/01/10 02:56:57;;;;;;;19.17;13.63;;;-4.00;99.90;;;;;;7377581;19;20042;-63
2024/01/10 02:59:24;;;;;;;19.33;13.23;;;-4.00;99.90;;;;;;7372081;19;20025;-63
2024/01/10 03:01:51;;;;;;;20.73;13.50;;;-4.00;99.90;;;;;;7375079;19;20105;-63
2024/01/10 03:04:17;;;;;;;18.08;12.82;;;-4.00;99.90;;;;;;7373822;19;20555;-63
2024/01/10 03:06:45;;;;;;;22.08;14.00;;;-4.00;99.90;;;;;;7376471;19;20669;-63
2024/01/10 03:09:12;;;;;;;20.08;13.88;;;-4.00;99.90;;;;;;7370299;19;20021;-63
2024/01/10 03:11:38;;;;;;;19.35;13.57;;;-4.00;99.90;;;;;;7377160;19;20025;-70
2024/01/10 03:14:08;;;;;;;17.02;11.93;;;-4.10;99.90;;;;;;7376840;19;20050;-70
2024/01/10 03:16:35;;;;;;;18.63;13.15;;;-4.10;99.90;;;;;;7375393;19;20206;-70
2024/01/10 03:19:02;;;;;;;18.73;13.25;;;-4.10;99.90;;;;;;7372766;19;20018;-70
2024/01/10 03:21:28;;;;;;;18.25;13.98;;;-4.10;99.90;;;;;;7373578;19;20018;-70
2024/01/10 03:23:56;;;;;;;20.95;14.85;;;-4.10;99.90;;;;;;7367546;19;20086;-70
2024/01/10 03:26:43;;;;;;;23.20;15.38;;;-4.10;99.90;;;;;;7370176;19;20023;-70
2024/01/10 03:29:09;;;;;;;21.90;15.50;;;-4.10;99.90;;;;;;7372574;19;20082;-70
2024/01/10 03:31:35;;;;;;;22.55;14.43;;;-4.10;99.90;;;;;;7371083;19;20099;-69
2024/01/10 03:34:03;;;;;;;21.02;15.07;;;-4.10;99.90;;;;;;7375104;19;20081;-70
2024/01/10 03:36:30;;;;;;;23.25;15.50;;;-4.10;99.90;;;;;;7371619;19;20011;-70
2024/01/10 03:38:56;;;;;;;21.13;14.65;;;-4.10;99.90;;;;;;7375136;19;20025;-63
2024/01/10 03:41:22;;;;;;;21.42;15.02;;;-4.10;99.90;;;;;;7370995;19;20043;-63
2024/01/10 03:43:50;;;;;;;21.48;15.55;;;-4.20;99.90;;;;;;7374539;19;20026;-63
2024/01/10 03:46:17;;;;;;;21.50;16.25;;;-4.10;99.90;;;;;;7373394;19;20372;-63
2024/01/10 03:48:50;;;;;;;23.85;16.20;;;-4.10;99.90;;;;;;7376157;19;20035;-64
2024/01/10 03:51:17;;;;;;;23.10;15.85;;;-4.10;99.90;;;;;;7374790;19;20019;-64
2024/01/10 03:53:44;;;;;;;22.58;16.65;;;-4.10;99.90;;;;;;7372206;19;20105;-63
2024/01/10 03:56:12;;;;;;;23.65;16.15;;;-4.20;99.90;;;;;;7372482;19;20038;-63
2024/01/10 03:58:38;;;;;;;22.70;15.30;;;-4.10;99.90;;;;;;7373778;19;20372;-70
2024/01/10 04:01:08;;;;;;;21.23;15.75;;;-4.10;99.90;;;;;;7376695;19;20014;-65
2024/01/10 04:03:36;;;;;;;23.23;16.23;;;-4.10;99.90;;;;;;7368756;19;20343;-63
2024/01/10 04:06:02;;;;;;;24.92;16.83;;;-4.10;99.90;;;;;;7372099;19;20367;-63
2024/01/10 04:08:29;;;;;;;21.33;16.23;;;-4.10;99.90;;;;;;7370249;19;20496;-63
2024/01/10 04:10:55;;;;;;;25.30;17.58;;;-4.10;99.90;;;;;;7377526;19;20022;-63
2024/01/10 04:13:21;;;;;;;24.27;15.65;;;-4.10;99.90;;;;;;7372037;19;20026;-63
2024/01/10 04:15:48;;;;;;;22.77;16.52;;;-4.10;99.90;;;;;;7369539;19;20554;-63
2024/01/10 04:18:15;;;;;;;22.70;16.52;;;-4.20;99.90;;;;;;7371874;19;20018;-63
2024/01/10 04:20:42;;;;;;;24.73;17.20;;;-4.20;99.90;;;;;;7370262;19;20015;-63
2024/01/10 04:23:08;;;;;;;21.48;16.25;;;-4.20;99.90;;;;;;7371825;19;20023;-63
2024/01/10 04:25:34;;;;;;;22.77;16.08;;;-4.20;99.90;;;;;;7369355;19;20022;-63
2024/01/10 04:28:01;;;;;;;24.15;17.33;;;-4.20;99.90;;;;;;7369425;19;20022;-63
2024/01/10 04:30:27;;;;;;;24.67;17.35;;;-4.20;99.90;;;;;;7372323;19;20034;-63
2024/01/10 04:32:54;;;;;;;22.73;16.50;;;-4.20;99.90;;;;;;7375676;19;20703;-63
2024/01/10 04:35:20;;;;;;;26.27;18.50;;;-4.20;99.90;;;;;;7370326;19;20026;-63
2024/01/10 04:37:46;;;;;;;24.83;17.67;;;-4.30;99.90;;;;;;7375925;19;20019;-63
2024/01/10 04:40:12;;;;;;;23.75;16.75;;;-4.30;99.90;;;;;;7368547;19;20018;-63
2024/01/10 04:42:38;;;;;;;21.50;17.30;;;-4.30;99.90;;;;;;7372042;19;20123;-63
2024/01/10 04:45:07;;;;;;;22.60;16.60;;;-4.30;99.90;;;;;;7369159;19;20022;-63
2024/01/10 04:47:33;;;;;;;23.67;17.00;;;-4.30;99.90;;;;;;7369404;19;20462;-63
2024/01/10 04:49:59;;;;;;;21.90;16.48;;;-4.30;99.90;;;;;;7372327;19;20905;-63
2024/01/10 04:52:25;;;;;;;24.67;16.70;;;-4.30;99.90;;;;;;7366725;19;20022;-63
2024/01/10 04:54:51;;;;;;;22.25;17.13;;;-4.30;99.90;;;;;;7372727;19;20014;-63
2024/01/10 04:57:18;;;;;;;23.27;16.13;;;-4.30;99.90;;;;;;7371351;19;20102;-63
2024/01/10 04:59:44;;;;;;;25.92;17.08;;;-4.30;99.90;;;;;;7367570;19;20526;-63
2024/01/10 05:02:10;;;;;;;23.20;16.63;;;-4.40;99.90;;;;;;7368093;19;20085;-63
2024/01/10 05:04:37;;;;;;;23.45;17.02;;;-4.40;99.90;;;;;;7364541;19;20090;-63
2024/01/10 05:07:04;;;;;;;23.38;17.45;;;-4.40;99.90;;;;;;7369199;19;20713;-63
2024/01/10 05:09:30;;;;;;;24.52;18.25;;;-4.40;99.90;;;;;;7372454;19;20047;-63
2024/01/10 05:11:56;;;;;;;23.67;18.60;;;-4.30;99.90;;;;;;7369247;19;20484;-63
2024/01/10 05:14:23;;;;;;;25.70;18.17;;;-4.40;99.90;;;;;;7372459;19;20023;-63
2024/01/10 05:16:49;;;;;;;30.17;20.48;;;-4.40;99.90;;;;;;7372474;19;20014;-63
2024/01/10 05:19:15;;;;;;;27.15;18.10;;;-4.40;99.90;;;;;;7375138;19;20507;-70
2024/01/10 05:21:42;;;;;;;26.00;18.67;;;-4.40;99.90;;;;;;7378237;19;20486;-70
2024/01/10 05:24:08;;;;;;;26.15;19.30;;;-4.40;99.90;;;;;;7372474;19;20014;-70
2024/01/10 05:26:34;;;;;;;28.58;19.63;;;-4.40;99.90;;;;;;7375788;19;20062;-70
2024/01/10 05:29:01;;;;;;;30.27;21.55;;;-4.40;99.90;;;;;;7373683;19;20398;-70
2024/01/10 05:31:47;;;;;;;31.80;22.17;;;-4.40;99.90;;;;;;7375203;19;20034;-72
2024/01/10 05:34:13;;;;;;;29.70;21.40;;;-4.30;99.90;;;;;;7378643;19;20067;-70
2024/01/10 05:36:39;;;;;;;30.85;21.85;;;-4.30;99.90;;;;;;7377272;19;20023;-69
2024/01/10 05:39:06;;;;;;;27.55;20.42;;;-4.40;99.90;;;;;;7377662;19;20031;-71
2024/01/10 05:41:32;;;;;;;26.13;21.23;;;-4.40;99.90;;;;;;7376423;19;20061;-69
2024/01/10 05:43:58;;;;;;;29.70;21.05;;;-4.40;99.90;;;;;;7376997;19;20110;-69
2024/01/10 05:46:25;;;;;;;30.10;20.58;;;-4.40;99.90;;;;;;7374705;19;20859;-69
2024/01/10 05:48:51;;;;;;;29.35;21.20;;;-4.40;99.90;;;;;;7375393;19;20089;-69
2024/01/10 05:51:17;;;;;;;30.58;20.63;;;-4.50;99.90;;;;;;7375606;19;20023;-69
2024/01/10 05:53:43;;;;;;;28.42;21.42;;;-4.50;99.90;;;;;;7382025;19;20010;-64
2024/01/10 05:56:10;;;;;;;30.98;21.75;;;-4.40;99.90;;;;;;7372513;19;20011;-70
2024/01/10 05:58:36;;;;;;;29.67;21.30;;;-4.40;99.90;;;;;;7379702;19;20507;-65
2024/01/10 06:01:03;;;;;;;32.30;22.17;;;-4.50;99.90;;;;;;7375805;19;20023;-64
2024/01/10 06:03:29;;;;;;;33.05;21.92;;;-4.50;99.90;;;;;;7379214;19;20376;-64
2024/01/10 06:05:56;;;;;;;33.95;22.85;;;-4.50;99.90;;;;;;7373484;19;20022;-63
2024/01/10 06:08:42;;;;;;;31.88;21.52;;;-4.50;99.90;;;;;;7377896;19;20084;-63
2024/01/10 06:11:09;;;;;;;32.03;22.95;;;-4.50;99.90;;;;;;7376236;19;20558;-62
2024/01/10 06:13:39;;;;;;;29.73;22.23;;;-4.50;99.90;;;;;;7379952;19;20797;-62
2024/01/10 06:16:07;;;;;;;31.67;21.95;;;-4.50;99.90;;;;;;7368988;19;20018;-63
2024/01/10 06:18:34;;;;;;;32.45;22.27;;;-4.50;99.90;;;;;;7373417;19;20026;-64
2024/01/10 06:21:00;;;;;;;30.52;23.60;;;-4.40;99.90;;;;;;7370846;19;20014;-63
2024/01/10 06:23:27;;;;;;;30.30;22.00;;;-4.50;99.90;;;;;;7371647;19;20102;-64
2024/01/10 06:25:54;;;;;;;29.45;22.42;;;-4.50;99.90;;;;;;7369142;19;20022;-64
2024/01/10 06:28:21;;;;;;;27.42;20.63;;;-4.40;99.90;;;;;;7370589;19;20130;-63
2024/01/10 06:30:47;;;;;;;27.60;20.48;;;-4.50;99.90;;;;;;7373390;19;20006;-62
2024/01/10 06:33:13;;;;;;;26.83;20.08;;;-4.40;99.90;;;;;;7370989;19;20532;-63
2024/01/10 06:35:40;;;;;;;30.02;21.65;;;-4.50;99.90;;;;;;7375663;19;20047;-65
2024/01/10 06:38:07;;;;;;;32.17;21.00;;;-4.40;99.90;;;;;;7373449;19;20014;-64
2024/01/10 06:40:33;;;;;;;30.90;20.20;;;-4.40;99.90;;;;;;7373382;19;20029;-63
2024/01/10 06:42:59;;;;;;;26.83;20.17;;;-4.40;99.90;;;;;;7376021;19;20010;-63
2024/01/10 06:45:26;;;;;;;26.67;19.63;;;-4.40;99.90;;;;;;7370311;19;20014;-63
2024/01/10 06:47:52;;;;;;;27.67;19.55;;;-4.40;99.90;;;;;;7376020;19;20504;-63
2024/01/10 06:50:20;;;;;;;28.45;20.20;;;-4.40;99.90;;;;;;7372733;19;20018;-62
2024/01/10 06:52:46;;;;;;;29.73;21.25;;;-4.40;99.90;;;;;;7375426;19;20014;-63
2024/01/10 06:55:12;;;;;;;28.70;19.90;;;-4.40;99.90;;;;;;7375961;19;20014;-62
2024/01/10 06:57:38;;;;;;;26.42;19.52;;;-4.40;99.90;;;;;;7378504;19;20019;-63
2024/01/10 07:00:10;;;;;;;26.15;19.90;;;-4.40;99.90;;;;;;7370331;19;20047;-63
2024/01/10 07:02:37;;;;;;;;;;;-4.40;99.90;;;;;;7376393;19;20086;-62
2024/01/10 07:05:07;;;;;;;27.60;19.45;;;-4.40;99.90;;;;;;7377274;19;20006;-62
2024/01/10 07:07:35;;;;;;;28.63;20.88;;;-4.40;99.90;;;;;;7381747;19;20011;-63
2024/01/10 07:10:04;;;;;;;26.75;19.70;;;-4.40;99.90;;;;;;7378122;19;20024;-62
2024/01/10 07:12:31;;;;;;;25.27;19.15;;;-4.50;99.90;;;;;;7375431;19;20014;-62
2024/01/10 07:15:04;;;;;;;25.55;18.75;;;-4.40;99.90;;;;;;7377924;19;20074;-63
2024/01/10 07:17:31;;;;;;;27.10;19.52;;;-4.40;99.90;;;;;;7376775;19;20074;-62
2024/01/10 07:20:00;;;;;;;28.83;19.73;;;-4.40;99.90;;;;;;7373086;19;20014;-62
2024/01/10 07:22:27;;;;;;;25.10;19.90;;;-4.40;99.90;;;;;;7375782;19;20921;-64
2024/01/10 07:24:53;;;;;;;32.78;22.25;;;-4.40;99.90;;;;;;7374619;19;20576;-62
2024/01/10 07:27:19;;;;;;;26.40;18.98;;;-4.40;99.90;;;;;;7373934;19;20070;-62
2024/01/10 07:29:46;;;;;;;27.02;19.75;;;-4.40;99.90;;;;;;7374304;19;20043;-62
2024/01/10 07:32:14;;;;;;;26.75;19.05;;;-4.40;99.90;;;;;;7369519;19;20015;-62
2024/01/10 07:34:40;;;;;;;28.67;19.90;;;-4.40;99.90;;;;;;7368399;19;20014;-62
2024/01/10 07:37:09;;;;;;;26.77;20.33;;;-4.40;99.90;;;;;;7373968;19;20043;-68
2024/01/10 07:39:35;;;;;;;24.27;18.95;;;-4.40;99.90;;;;;;7373019;19;20671;-64
2024/01/10 07:42:21;;;;;;;26.25;19.10;;;-4.40;99.90;;;;;;7375614;19;20166;-62
2024/01/10 07:44:47;;;;;;;25.02;19.52;;;-4.40;99.90;;;;;;7368297;19;20018;-68
2024/01/10 07:47:13;;;;;;;26.35;18.38;;;-4.40;99.90;;;;;;7374264;19;20812;-69
2024/01/10 07:49:39;;;;;;;26.27;19.60;;;-4.40;99.90;;;;;;7372369;19;20102;-66
2024/01/10 07:52:06;;;;;;;24.80;18.42;;;-4.40;99.90;;;;;;7375897;19;20014;-67
2024/01/10 07:54:32;;;;;;;26.67;20.70;;;-4.30;99.90;;;;;;7378155;19;20025;-65
2024/01/10 07:56:58;;;;;;;27.10;19.38;;;-4.40;99.90;;;;;;7378660;19;21105;-67
2024/01/10 07:59:25;;;;;;;24.63;18.08;;;-4.30;99.90;;;;;;7378725;19;20010;-69
2024/01/10 08:01:58;;;;;;;33.33;21.70;;;-4.30;99.90;;;;;;7370525;19;20511;-69
2024/01/10 08:04:26;;;;;;;24.50;18.85;;;-4.30;99.90;;;;;;7371327;19;20022;-67
2024/01/10 08:06:53;;;;;;;22.80;18.15;;;-4.20;99.90;;;;;;7372258;19;20015;-61
2024/01/10 08:09:20;;;;;;;23.70;17.00;;;-4.20;99.90;;;;;;7377257;19;20022;-61
2024/01/10 08:11:47;;;;;;;23.33;18.45;;;-4.20;99.90;;;;;;7378043;19;20014;-61
2024/01/10 08:14:15;;;;;;;23.48;16.27;;;-4.20;99.90;;;;;;7377050;19;20074;-64
2024/01/10 08:16:44;;;;;;;18.80;15.85;;;-4.00;99.90;;;;;;7373239;19;20026;-60
2024/01/10 08:19:11;;;;;;;23.65;18.08;;;-4.00;99.90;;;;;;7375443;19;20015;-61
2024/01/10 08:21:37;;;;;;;24.92;16.42;;;-3.90;99.90;;;;;;7375380;19;20016;-60
2024/01/10 08:24:03;;;;;;;22.45;18.65;;;-3.60;99.90;;;;;;7373538;19;20470;-61
2024/01/10 08:26:30;;;;;;;21.10;15.90;;;-3.40;99.90;;;;;;7373914;19;20018;-61
2024/01/10 08:28:56;;;;;;;21.58;16.45;;;-3.20;99.90;;;;;;7373117;19;20377;-63
2024/01/10 08:31:23;;;;;;;19.48;15.77;;;-3.20;99.90;;;;;;7372164;19;20014;-61
2024/01/10 08:33:49;;;;;;;25.80;19.17;;;-3.00;99.90;;;;;;7372157;19;20034;-61
2024/01/10 08:36:16;;;;;;;25.13;16.55;;;-2.90;99.90;;;;;;7370467;19;20476;-65
2024/01/10 08:38:42;;;;;;;20.23;14.82;;;-2.70;99.90;;;;;;7372596;19;20031;-66
2024/01/10 08:41:28;;;;;;;22.15;16.48;;;-2.40;99.90;;;;;;7370595;19;20026;-65
2024/01/10 08:43:54;;;;;;;18.70;15.40;;;-2.10;99.90;;;;;;7375332;19;20523;-66
2024/01/10 08:46:21;;;;;;;20.02;14.75;;;-1.90;99.90;;;;;;7370076;19;20022;-61
2024/01/10 08:48:47;;;;;;;16.08;10.63;;;-1.80;99.90;;;;;;7376120;19;20756;-63
2024/01/10 08:51:16;;;;;;;21.90;16.67;;;-1.90;99.90;;;;;;7374635;19;20022;-64
2024/01/10 08:53:46;;;;;;;24.90;19.02;;;-1.80;99.90;;;;;;7378612;19;20047;-63
2024/01/10 08:56:12;;;;;;;24.92;19.33;;;-1.40;99.90;;;;;;7380970;19;20494;-64
2024/01/10 08:58:38;;;;;;;20.70;16.00;;;-1.30;99.90;;;;;;7381121;19;20014;-64
2024/01/10 09:01:04;;;;;;;21.38;17.45;;;-1.30;99.90;;;;;;7380350;19;20034;-63
2024/01/10 09:03:34;;;;;;;19.63;17.08;;;-0.90;99.90;;;;;;7379845;19;20841;-64
2024/01/10 09:06:00;;;;;;;21.63;17.35;;;-0.50;99.90;;;;;;7378851;19;20379;-65
2024/01/10 09:08:27;;;;;;;18.65;15.48;;;0.00;99.90;;;;;;7377881;19;20018;-64
2024/01/10 09:10:54;;;;;;;20.95;15.90;;;-0.10;99.90;;;;;;7380894;19;20754;-64
2024/01/10 09:13:21;;;;;;;21.77;17.17;;;0.00;99.90;;;;;;7378525;19;20881;-64
2024/01/10 09:15:47;;;;;;;18.05;15.35;;;-0.20;99.90;;;;;;7383395;19;20014;-68
2024/01/10 09:18:14;;;;;;;23.17;19.15;;;-0.10;99.90;;;;;;7381458;19;20086;-68
2024/01/10 09:20:44;;;;;;;23.63;18.70;;;0.00;99.90;;;;;;7381227;19;20025;-64
2024/01/10 09:23:10;;;;;;;20.85;15.50;;;-0.10;99.90;;;;;;7378114;19;20018;-61
2024/01/10 09:25:37;;;;;;;27.65;20.58;;;-0.20;99.90;;;;;;7379525;19;20048;-61
2024/01/10 09:28:06;;;;;;;22.60;17.45;;;0.10;99.90;;;;;;7379303;19;20458;-64
2024/01/10 09:30:32;;;;;;;20.35;16.95;;;0.00;99.90;;;;;;7379748;19;20022;-64
2024/01/10 09:33:00;;;;;;;21.02;16.77;;;-0.20;99.90;;;;;;7380950;19;20141;-64
2024/01/10 09:35:26;;;;;;;21.88;17.85;;;-0.40;99.90;;;;;;7381203;19;20614;-63
2024/01/10 09:37:53;;;;;;;22.70;17.42;;;-0.60;99.90;;;;;;7377040;19;20094;-64
2024/01/10 09:40:21;;;;;;;24.30;19.20;;;-0.50;99.90;;;;;;7382027;19;20021;-63
2024/01/10 09:42:51;;;;;;;21.80;17.65;;;-0.60;99.90;;;;;;7380058;19;20725;-63
2024/01/10 09:45:21;;;;;;;26.05;19.90;;;-0.50;99.90;;;;;;7380192;19;20014;-64
2024/01/10 09:47:55;;;;;;;23.42;16.95;;;-0.20;99.90;;;;;;7380244;19;20626;-63
2024/01/10 09:50:27;;;;;;;24.38;18.05;;;-0.50;99.90;;;;;;7379944;19;20021;-64
2024/01/10 09:53:00;;;;;;;19.15;14.57;;;-0.30;99.90;;;;;;7379604;19;20021;-64
2024/01/10 09:55:32;;;;;;;22.10;17.33;;;-0.30;99.90;;;;;;7378746;19;20025;-64
2024/01/10 09:57:58;;;;;;;19.88;15.98;;;-0.50;99.90;;;;;;7381695;19;20018;-64
2024/01/10 10:00:25;;;;;;;23.30;18.17;;;-0.50;99.90;;;;;;7379520;19;20015;-64
2024/01/10 10:02:53;;;;;;;22.20;16.67;;;-0.80;99.90;;;;;;7377524;19;20086;-64
2024/01/10 10:05:20;;;;;;;24.70;17.27;;;-0.70;99.90;;;;;;7377733;19;20014;-64
2024/01/10 10:07:48;;;;;;;20.02;15.05;;;-0.70;99.90;;;;;;7379991;19;20026;-64
2024/01/10 10:10:15;;;;;;;25.33;17.00;;;-0.60;99.90;;;;;;7380499;19;20370;-64
2024/01/10 10:12:50;;;;;;;24.73;15.90;;;-0.50;99.90;;;;;;7379864;19;20382;-64
2024/01/10 10:15:21;;;;;;;24.20;16.73;;;-0.50;99.90;;;;;;7377886;19;20015;-64
2024/01/10 10:17:49;;;;;;;22.63;16.70;;;-0.50;99.90;;;;;;7376443;19;20010;-64
2024/01/10 10:20:23;;;;;;;29.95;21.25;;;-0.60;99.90;;;;;;7367315;19;20022;-64
2024/01/10 10:23:04;;;;;;;33.75;22.67;;;-0.60;99.90;;;;;;7372498;19;20025;-64
2024/01/10 10:25:42;;;;;;;26.55;19.40;;;-0.50;99.90;;;;;;7375530;19;20482;-68
2024/01/10 10:28:08;;;;;;;20.17;14.13;;;-0.30;99.90;;;;;;7374600;19;20791;-66
2024/01/10 10:30:35;;;;;;;21.77;15.35;;;0.00;99.90;;;;;;7367320;19;20399;-65
2024/01/10 10:33:07;;;;;;;32.25;23.40;;;0.10;99.90;;;;;;7378342;19;20014;-65
2024/01/10 10:35:34;;;;;;;19.30;14.55;;;0.60;99.90;;;;;;7371427;19;20014;-65
2024/01/10 10:38:00;;;;;;;25.90;18.83;;;0.90;99.90;;;;;;7374806;19;20014;-65
2024/01/10 10:40:27;;;;;;;26.23;20.23;;;1.20;99.90;;;;;;7366029;19;20015;-66
2024/01/10 10:42:56;;;;;;;22.20;15.38;;;1.00;99.90;;;;;;7373731;19;20121;-66
2024/01/10 10:45:26;;;;;;;21.67;13.98;;;0.80;99.90;;;;;;7365213;19;20114;-66
2024/01/10 10:48:01;;;;;;;30.45;20.85;;;0.80;99.90;;;;;;7376053;19;20379;-66
2024/01/10 10:50:36;;;;;;;32.17;22.52;;;0.70;99.90;;;;;;7367863;19;20027;-66
2024/01/10 10:53:06;;;;;;;18.27;12.95;;;0.70;99.90;;;;;;7379869;19;20014;-66
2024/01/10 10:55:34;;;;;;;20.20;14.90;;;0.70;99.90;;;;;;7372577;19;20392;-66
2024/01/10 10:58:04;;;;;;;20.77;14.32;;;0.80;99.90;;;;;;7377838;19;20078;-63
2024/01/10 11:00:32;;;;;;;27.60;20.45;;;0.80;99.90;;;;;;7374622;19;20014;-63
2024/01/10 11:03:00;;;;;;;19.15;14.07;;;0.60;99.90;;;;;;7372649;19;20014;-64
2024/01/10 11:05:27;;;;;;;37.20;26.58;;;1.20;99.90;;;;;;7369934;19;20014;-63
2024/01/10 11:07:54;;;;;;;20.95;15.27;;;2.50;99.90;;;;;;7366318;19;20506;-64
2024/01/10 11:10:29;;;;;;;18.15;13.35;;;3.10;90.00;;;;;;7371678;19;20025;-65
2024/01/10 11:13:10;;;;;;;23.98;17.52;;;3.90;78.00;;;;;;7369817;19;20039;-68
2024/01/10 11:15:42;;;;;;;18.52;13.57;;;4.10;77.60;;;;;;7376973;19;20511;-69
2024/01/10 11:18:46;;;;;;;20.63;15.75;;;3.60;72.00;;;;;;7376456;19;20035;-70
2024/01/10 11:21:39;;;;;;;24.92;18.48;;;3.50;73.40;;;;;;7372914;19;20028;-71
2024/01/10 11:24:09;;;;;;;29.30;21.67;;;3.20;71.80;;;;;;7376095;19;20110;-70
2024/01/10 11:26:37;;;;;;;16.40;11.50;;;2.80;72.70;;;;;;7374445;19;20014;-70
2024/01/10 11:29:05;;;;;;;28.10;18.20;;;2.80;73.50;;;;;;7371353;19;20045;-71
2024/01/10 11:31:32;;;;;;;22.02;16.10;;;3.40;74.10;;;;;;7373982;19;20018;-70
2024/01/10 11:34:01;;;;;;;25.70;17.88;;;3.20;71.90;;;;;;7376923;19;20035;-72
2024/01/10 11:36:28;;;;;;;17.95;13.07;;;3.20;72.40;;;;;;7377654;19;20021;-72
2024/01/10 11:39:01;;;;;;;32.60;21.58;;;3.20;72.70;;;;;;7381993;19;20019;-72
2024/01/10 11:41:35;;;;;;;23.10;14.48;;;2.70;70.60;;;;;;7379544;19;20379;-72
2024/01/10 11:44:11;;;;;;;21.23;12.02;;;2.70;71.80;;;;;;7372961;19;20623;-72
2024/01/10 11:46:41;;;;;;;63.60;47.72;;;2.60;71.20;;;;;;7372965;19;20022;-70
2024/01/10 11:49:13;;;;;;;115.68;81.20;;;3.10;76.10;;;;;;7373745;19;20018;-70
2024/01/10 11:51:48;;;;;;;15.38;10.82;;;4.20;93.30;;;;;;7371856;19;20029;-72
2024/01/10 11:54:41;;;;;;;16.15;11.90;;;4.60;74.10;;;;;;7375086;19;20022;-71
2024/01/10 11:57:12;;;;;;;15.85;11.27;;;4.70;65.70;;;;;;7374961;19;20014;-62
2024/01/10 11:59:41;;;;;;;16.60;12.10;;;5.50;68.10;;;;;;7368826;19;20018;-63
2024/01/10 12:02:08;;;;;;;18.20;12.20;;;5.80;66.80;;;;;;7368163;19;20026;-62
2024/01/10 12:04:34;;;;;;;18.02;11.68;;;5.40;64.50;;;;;;7376125;19;20067;-64
2024/01/10 12:07:03;;;;;;;16.05;11.77;;;5.50;64.10;;;;;;7368669;19;20482;-63
2024/01/10 12:09:30;;;;;;;19.02;11.73;;;5.60;62.60;;;;;;7368902;19;20014;-71
2024/01/10 12:11:56;;;;;;;17.33;11.38;;;5.90;63.30;;;;;;7373074;19;20022;-71
2024/01/10 12:14:24;;;;;;;16.02;11.73;;;6.10;62.30;;;;;;7376522;19;20018;-62
2024/01/10 12:16:52;;;;;;;16.83;11.27;;;6.40;61.50;;;;;;7366713;19;20023;-64
2024/01/10 12:19:18;;;;;;;16.35;11.32;;;6.70;61.50;;;;;;7372338;19;20089;-62
2024/01/10 12:21:45;;;;;;;16.63;12.10;;;6.90;61.40;;;;;;7368218;19;20041;-63
2024/01/10 12:24:32;;;;;;;16.10;11.60;;;6.80;58.90;;;;;;7371124;19;20022;-70
2024/01/10 12:26:58;;;;;;;16.20;11.50;;;7.40;60.70;;;;;;7363334;19;20052;-71
2024/01/10 12:29:26;;;;;;;14.55;11.35;;;7.60;58.60;;;;;;7372924;19;20431;-71
2024/01/10 12:31:53;;;;;;;16.58;11.63;;;7.80;57.90;;;;;;7371888;19;20426;-63